createdAt,value
2023-02-09T00:00:18.184Z,11.23
2023-02-09T00:02:47.136Z,8.03
2023-02-09T00:05:16.683Z,13.97
2023-02-09T00:07:44.882Z,14.00
2023-02-09T00:10:15.573Z,10.40
2023-02-09T00:13:01.067Z,9.93
2023-02-09T00:15:29.334Z,8.03
2023-02-09T00:17:58.035Z,6.87
2023-02-09T00:20:27.557Z,8.10
2023-02-09T00:22:55.694Z,6.00
2023-02-09T00:25:23.898Z,6.67
2023-02-09T00:27:52.136Z,11.00
2023-02-09T00:30:20.593Z,8.37
2023-02-09T00:32:48.837Z,10.70
2023-02-09T00:35:17.217Z,6.87
2023-02-09T00:37:46.905Z,5.23
2023-02-09T00:40:15.116Z,6.23
2023-02-09T00:42:43.281Z,7.03
2023-02-09T00:45:11.579Z,10.60
2023-02-09T00:47:39.768Z,8.27
2023-02-09T00:50:08.503Z,7.33
2023-02-09T00:52:36.765Z,5.80
2023-02-09T00:55:07.046Z,4.77
2023-02-09T00:57:36.058Z,6.17
2023-02-09T01:00:04.997Z,5.90
2023-02-09T01:02:33.363Z,6.03
2023-02-09T01:05:01.826Z,4.40
2023-02-09T01:07:30.181Z,7.37
2023-02-09T01:09:59.935Z,5.57
2023-02-09T01:12:30.086Z,8.10
2023-02-09T01:14:58.483Z,7.90
2023-02-09T01:17:27.861Z,4.53
2023-02-09T01:19:56.320Z,4.50
2023-02-09T01:22:24.689Z,4.47
2023-02-09T01:24:55.707Z,8.93
2023-02-09T01:27:24.146Z,4.67
2023-02-09T01:29:55.170Z,4.70
2023-02-09T01:32:24.270Z,6.03
2023-02-09T01:34:53.753Z,7.87
2023-02-09T01:37:22.805Z,9.60
2023-02-09T01:39:51.108Z,8.37
2023-02-09T01:42:21.057Z,6.40
2023-02-09T01:45:21.450Z,7.57
2023-02-09T01:47:55.511Z,9.27
2023-02-09T01:50:25.686Z,6.67
2023-02-09T01:52:54.718Z,10.87
2023-02-09T01:55:26.671Z,7.97
2023-02-09T01:57:58.243Z,6.77
2023-02-09T02:00:28.463Z,10.30
2023-02-09T02:02:59.814Z,9.30
2023-02-09T02:05:29.185Z,9.13
2023-02-09T02:08:02.880Z,9.70
2023-02-09T02:10:31.926Z,10.90
2023-02-09T02:13:00.433Z,9.20
2023-02-09T02:15:34.385Z,10.70
2023-02-09T02:18:16.126Z,11.43
2023-02-09T02:21:09.437Z,11.20
2023-02-09T02:23:48.394Z,5.40
2023-02-09T02:26:49.481Z,7.93
2023-02-09T02:29:53.024Z,8.10
2023-02-09T02:32:38.669Z,6.83
2023-02-09T02:35:13.927Z,10.07
2023-02-09T02:37:55.891Z,9.47
2023-02-09T02:40:34.135Z,7.90
2023-02-09T02:43:12.494Z,12.70
2023-02-09T02:45:45.826Z,9.87
2023-02-09T02:48:28.396Z,7.83
2023-02-09T02:51:00.815Z,11.23
2023-02-09T02:53:32.751Z,9.87
2023-02-09T02:56:05.849Z,8.77
2023-02-09T02:58:36.495Z,9.60
2023-02-09T03:01:08.538Z,12.33
2023-02-09T03:03:41.007Z,10.50
2023-02-09T03:06:10.362Z,8.43
2023-02-09T03:08:52.860Z,10.47
2023-02-09T03:11:23.228Z,10.73
2023-02-09T03:14:13.937Z,7.60
2023-02-09T03:16:47.207Z,8.43
2023-02-09T03:19:26.346Z,6.57
2023-02-09T03:21:59.243Z,8.40
2023-02-09T03:24:36.839Z,8.80
2023-02-09T03:27:12.089Z,10.00
2023-02-09T03:29:41.104Z,8.70
2023-02-09T03:32:10.495Z,7.13
2023-02-09T03:34:40.341Z,10.77
2023-02-09T03:37:08.849Z,8.93
2023-02-09T03:39:37.435Z,11.00
2023-02-09T03:42:06.077Z,10.17
2023-02-09T03:44:34.344Z,7.17
2023-02-09T03:47:04.253Z,6.97
2023-02-09T03:49:34.903Z,8.50
2023-02-09T03:52:05.088Z,4.30
2023-02-09T03:54:34.482Z,7.13
2023-02-09T03:57:03.125Z,6.63
2023-02-09T03:59:31.335Z,7.87
2023-02-09T04:02:00.224Z,6.87
2023-02-09T04:04:28.758Z,6.93
2023-02-09T04:06:57.237Z,5.37
2023-02-09T04:09:27.828Z,9.83
2023-02-09T04:11:56.235Z,9.40
2023-02-09T04:14:24.634Z,8.23
2023-02-09T04:16:52.810Z,5.77
2023-02-09T04:19:21.049Z,6.20
2023-02-09T04:21:49.235Z,6.80
2023-02-09T04:24:22.286Z,9.73
2023-02-09T04:26:51.815Z,5.33
2023-02-09T04:29:20.009Z,5.13
2023-02-09T04:31:49.025Z,7.68
2023-02-09T04:34:17.341Z,10.03
2023-02-09T04:36:45.556Z,9.13
2023-02-09T04:39:13.904Z,7.27
2023-02-09T04:41:42.055Z,7.53
2023-02-09T04:44:12.053Z,9.47
2023-02-09T04:46:40.205Z,8.07
2023-02-09T04:49:08.381Z,6.20
2023-02-09T04:51:37.496Z,8.60
2023-02-09T04:54:05.717Z,7.30
2023-02-09T04:56:35.123Z,3.30
2023-02-09T04:59:20.870Z,7.07
2023-02-09T05:01:50.413Z,4.90
2023-02-09T05:04:18.583Z,7.53
2023-02-09T05:06:46.850Z,7.67
2023-02-09T05:09:14.992Z,6.53
2023-02-09T05:11:43.185Z,6.43
2023-02-09T05:14:11.358Z,9.93
2023-02-09T05:16:39.632Z,10.67
2023-02-09T05:19:09.174Z,8.93
2023-02-09T05:21:37.371Z,8.80
2023-02-09T05:24:06.111Z,9.80
2023-02-09T05:26:34.303Z,8.30
2023-02-09T05:29:03.687Z,9.83
2023-02-09T05:31:32.103Z,5.93
2023-02-09T05:34:01.068Z,7.23
2023-02-09T05:36:30.705Z,8.40
2023-02-09T05:38:58.868Z,8.37
2023-02-09T05:41:44.210Z,7.07
2023-02-09T05:44:13.235Z,7.77
2023-02-09T05:46:41.827Z,3.47
2023-02-09T05:49:10.007Z,5.63
2023-02-09T05:51:39.570Z,7.80
2023-02-09T05:54:07.736Z,4.70
2023-02-09T05:56:37.970Z,5.80
2023-02-09T05:59:06.234Z,3.90
2023-02-09T06:01:34.535Z,8.00
2023-02-09T06:04:02.713Z,8.10
2023-02-09T06:06:30.876Z,9.67
2023-02-09T06:09:00.434Z,8.77
2023-02-09T06:11:28.691Z,7.23
2023-02-09T06:13:57.105Z,9.67
2023-02-09T06:16:27.102Z,10.17
2023-02-09T06:18:55.357Z,9.47
2023-02-09T06:21:23.538Z,6.63
2023-02-09T06:23:51.759Z,7.63
2023-02-09T06:26:21.856Z,8.87
2023-02-09T06:28:50.073Z,7.20
2023-02-09T06:31:18.385Z,7.23
2023-02-09T06:33:46.605Z,7.17
2023-02-09T06:36:14.877Z,5.90
2023-02-09T06:38:43.055Z,7.37
2023-02-09T06:41:11.357Z,7.33
2023-02-09T06:43:40.993Z,7.47
2023-02-09T06:46:11.109Z,7.27
2023-02-09T06:48:40.099Z,7.87
2023-02-09T06:51:10.001Z,8.60
2023-02-09T06:53:38.685Z,8.17
2023-02-09T06:56:07.808Z,4.77
2023-02-09T06:58:40.731Z,6.23
2023-02-09T07:01:10.934Z,3.80
2023-02-09T07:03:39.728Z,12.97
2023-02-09T07:06:09.973Z,8.97
2023-02-09T07:08:38.684Z,5.17
2023-02-09T07:11:09.556Z,8.03
2023-02-09T07:13:38.638Z,7.07
2023-02-09T07:16:11.471Z,7.57
2023-02-09T07:18:39.834Z,4.83
2023-02-09T07:21:10.038Z,6.63
2023-02-09T07:23:39.107Z,7.80
2023-02-09T07:26:09.469Z,10.30
2023-02-09T07:28:38.560Z,10.10
2023-02-09T07:31:10.724Z,11.43
2023-02-09T07:33:39.189Z,10.13
2023-02-09T07:36:10.741Z,9.87
2023-02-09T07:38:39.624Z,11.53
2023-02-09T07:41:09.090Z,12.23
2023-02-09T07:43:37.255Z,13.47
2023-02-09T07:46:07.837Z,14.17
2023-02-09T07:48:37.988Z,12.60
2023-02-09T07:51:07.219Z,13.50
2023-02-09T07:53:35.401Z,12.60
2023-02-09T07:56:06.791Z,11.70
2023-02-09T07:58:35.340Z,11.98
2023-02-09T08:01:06.351Z,11.63
2023-02-09T08:03:37.992Z,13.30
2023-02-09T08:06:12.606Z,11.93
2023-02-09T08:08:40.732Z,12.85
2023-02-09T08:11:09.101Z,12.65
2023-02-09T08:13:40.812Z,11.52
2023-02-09T08:16:13.737Z,13.18
2023-02-09T08:18:45.801Z,13.23
2023-02-09T08:21:16.618Z,11.00
2023-02-09T08:23:47.223Z,11.90
2023-02-09T08:26:18.557Z,10.98
2023-02-09T08:28:47.476Z,9.20
2023-02-09T08:31:17.951Z,11.13
2023-02-09T08:33:49.344Z,9.43
2023-02-09T08:36:19.007Z,9.80
2023-02-09T08:38:48.044Z,9.10
2023-02-09T08:41:18.866Z,10.57
2023-02-09T08:43:49.123Z,9.75
2023-02-09T08:46:17.389Z,9.02
2023-02-09T08:48:48.340Z,11.02
2023-02-09T08:51:17.605Z,11.13
2023-02-09T08:53:54.461Z,11.38
2023-02-09T08:56:23.514Z,10.73
2023-02-09T08:58:51.720Z,11.68
2023-02-09T09:01:20.030Z,12.52
2023-02-09T09:03:49.657Z,11.38
2023-02-09T09:06:17.885Z,13.02
2023-02-09T09:08:46.026Z,12.10
2023-02-09T09:11:15.396Z,13.32
2023-02-09T09:13:44.447Z,13.05
2023-02-09T09:16:20.280Z,13.50
2023-02-09T09:18:50.326Z,14.38
2023-02-09T09:21:20.143Z,15.35
2023-02-09T09:23:48.683Z,15.68
2023-02-09T09:26:18.117Z,18.00
2023-02-09T09:28:46.456Z,15.95
2023-02-09T09:31:16.804Z,15.55
2023-02-09T09:33:45.653Z,12.85
2023-02-09T09:36:19.280Z,12.23
2023-02-09T09:38:47.544Z,13.02
2023-02-09T09:41:23.097Z,13.25
2023-02-09T09:43:53.217Z,14.57
2023-02-09T09:46:23.416Z,13.80
2023-02-09T09:48:54.378Z,12.52
2023-02-09T09:51:29.730Z,12.55
2023-02-09T09:54:01.433Z,12.40
2023-02-09T09:56:31.419Z,12.55
2023-02-09T09:59:00.834Z,13.05
2023-02-09T10:01:32.190Z,13.95
2023-02-09T10:04:03.164Z,12.02
2023-02-09T10:06:33.731Z,10.90
2023-02-09T10:09:05.647Z,13.43
2023-02-09T10:11:39.476Z,9.68
2023-02-09T10:14:10.451Z,11.43
2023-02-09T10:16:39.072Z,13.77
2023-02-09T10:19:17.956Z,10.82
2023-02-09T10:21:48.891Z,10.88
2023-02-09T10:24:23.112Z,10.43
2023-02-09T10:27:05.076Z,10.00
2023-02-09T10:29:33.277Z,9.57
2023-02-09T10:32:07.223Z,10.13
2023-02-09T10:34:45.420Z,9.20
2023-02-09T10:37:28.747Z,9.68
2023-02-09T10:40:11.266Z,9.35
2023-02-09T10:42:42.853Z,8.82
2023-02-09T10:45:19.184Z,8.85
2023-02-09T10:47:58.559Z,8.32
2023-02-09T10:50:26.803Z,8.63
2023-02-09T10:52:59.578Z,9.00
2023-02-09T10:55:34.555Z,10.13
2023-02-09T10:58:26.677Z,9.98
2023-02-09T11:01:02.545Z,8.80
2023-02-09T11:03:30.848Z,9.73
2023-02-09T11:06:01.832Z,9.93
2023-02-09T11:08:41.479Z,10.82
2023-02-09T11:11:21.421Z,10.95
2023-02-09T11:13:49.689Z,11.57
2023-02-09T11:16:31.665Z,10.98
2023-02-09T11:19:07.398Z,9.60
2023-02-09T11:21:57.002Z,9.70
2023-02-09T11:24:41.680Z,10.70
2023-02-09T11:27:36.102Z,10.48
2023-02-09T11:30:16.443Z,10.38
2023-02-09T11:32:48.539Z,10.05
2023-02-09T11:35:19.832Z,10.77
2023-02-09T11:37:56.441Z,9.98
2023-02-09T11:40:33.275Z,11.43
2023-02-09T11:43:15.776Z,10.98
2023-02-09T11:45:46.629Z,9.82
2023-02-09T11:48:21.469Z,12.02
2023-02-09T11:51:00.298Z,11.38
2023-02-09T11:53:35.783Z,11.68
2023-02-09T11:56:08.740Z,12.10
2023-02-09T11:58:46.774Z,13.43
2023-02-09T12:01:27.269Z,12.90
2023-02-09T12:04:06.246Z,13.27
2023-02-09T12:06:39.571Z,12.73
2023-02-09T12:09:27.867Z,12.25
2023-02-09T12:12:11.828Z,11.52
2023-02-09T12:15:21.623Z,10.50
2023-02-09T12:17:54.095Z,9.88
2023-02-09T12:20:26.374Z,10.15
2023-02-09T12:23:01.002Z,10.35
2023-02-09T12:25:56.351Z,11.40
2023-02-09T12:28:45.501Z,8.10
2023-02-09T12:31:20.444Z,9.07
2023-02-09T12:34:24.002Z,8.55
2023-02-09T12:37:27.653Z,6.22
2023-02-09T12:40:22.602Z,6.43
2023-02-09T12:43:25.173Z,6.75
2023-02-09T12:46:14.085Z,6.40
2023-02-09T12:49:19.971Z,5.75
2023-02-09T12:52:20.632Z,6.35
2023-02-09T12:54:51.586Z,6.22
2023-02-09T12:57:55.800Z,6.75
2023-02-09T13:00:43.064Z,6.75
2023-02-09T13:03:21.216Z,6.57
2023-02-09T13:05:51.272Z,6.05
2023-02-09T13:08:34.999Z,4.90
2023-02-09T13:11:07.921Z,4.65
2023-02-09T13:13:47.356Z,5.15
2023-02-09T13:16:44.007Z,4.55
2023-02-09T13:19:33.796Z,5.20
2023-02-09T13:22:28.577Z,4.38
2023-02-09T13:25:00.961Z,4.07
2023-02-09T13:27:30.998Z,5.38
2023-02-09T13:30:00.502Z,4.32
2023-02-09T13:32:39.670Z,5.22
2023-02-09T13:35:17.749Z,4.65
2023-02-09T13:37:48.767Z,5.18
2023-02-09T13:40:19.920Z,5.85
2023-02-09T13:42:55.186Z,4.97
2023-02-09T13:45:26.602Z,5.30
2023-02-09T13:47:55.801Z,6.30
2023-02-09T13:50:28.202Z,5.78
2023-02-09T13:53:09.104Z,6.18
2023-02-09T13:55:39.864Z,6.50
2023-02-09T13:58:09.856Z,7.00
2023-02-09T14:00:42.204Z,7.18
2023-02-09T14:03:16.839Z,6.78
2023-02-09T14:05:51.116Z,7.35
2023-02-09T14:08:20.535Z,7.47
2023-02-09T14:10:56.033Z,6.88
2023-02-09T14:13:29.654Z,6.63
2023-02-09T14:16:07.689Z,7.03
2023-02-09T14:18:48.137Z,6.10
2023-02-09T14:21:27.528Z,6.68
2023-02-09T14:24:17.662Z,6.15
2023-02-09T14:26:50.001Z,7.25
2023-02-09T14:29:20.620Z,7.35
2023-02-09T14:31:51.380Z,7.18
2023-02-09T14:34:36.501Z,7.05
2023-02-09T14:37:31.634Z,7.30
2023-02-09T14:40:04.621Z,7.00
2023-02-09T14:42:39.328Z,7.38
2023-02-09T14:45:30.831Z,7.22
2023-02-09T14:47:59.040Z,6.45
2023-02-09T14:50:27.205Z,6.88
2023-02-09T14:53:12.820Z,6.72
2023-02-09T14:55:41.149Z,7.20
2023-02-09T14:58:19.068Z,6.88
2023-02-09T15:00:47.369Z,8.02
2023-02-09T15:03:15.550Z,6.85
2023-02-09T15:05:44.561Z,6.68
2023-02-09T15:08:17.627Z,6.80
2023-02-09T15:10:48.312Z,7.05
2023-02-09T15:13:17.308Z,6.10
2023-02-09T15:15:46.390Z,7.55
2023-02-09T15:18:19.661Z,6.60
2023-02-09T15:20:48.159Z,6.65
2023-02-09T15:23:20.843Z,8.23
2023-02-09T15:25:49.294Z,9.52
2023-02-09T15:28:24.626Z,8.50
2023-02-09T15:30:53.156Z,10.23
2023-02-09T15:33:24.284Z,10.05
2023-02-09T15:35:52.880Z,10.38
2023-02-09T15:38:22.433Z,11.05
2023-02-09T15:41:14.612Z,11.88
2023-02-09T15:44:00.475Z,10.40
2023-02-09T15:46:45.993Z,10.50
2023-02-09T15:49:14.234Z,9.43
2023-02-09T15:51:42.597Z,11.00
2023-02-09T15:54:16.619Z,9.38
2023-02-09T15:56:44.873Z,10.20
2023-02-09T15:59:18.898Z,11.27
2023-02-09T16:01:47.234Z,14.32
2023-02-09T16:04:15.759Z,17.88
2023-02-09T16:06:46.379Z,16.60
2023-02-09T16:09:20.467Z,18.10
2023-02-09T16:11:48.982Z,16.35
2023-02-09T16:14:22.869Z,20.50
2023-02-09T16:16:51.347Z,17.90
2023-02-09T16:19:22.571Z,18.85
2023-02-09T16:21:53.988Z,21.90
2023-02-09T16:24:30.982Z,16.75
2023-02-09T16:27:00.420Z,14.73
2023-02-09T16:29:28.677Z,14.70
2023-02-09T16:31:56.901Z,17.50
2023-02-09T16:34:25.108Z,14.02
2023-02-09T16:36:53.319Z,15.10
2023-02-09T16:39:24.148Z,20.42
2023-02-09T16:41:54.478Z,16.77
2023-02-09T16:44:24.577Z,18.80
2023-02-09T16:46:55.014Z,18.77
2023-02-09T16:49:38.657Z,21.50
2023-02-09T16:52:14.316Z,23.58
2023-02-09T16:54:46.242Z,22.65
2023-02-09T16:57:16.983Z,22.50
2023-02-09T16:59:45.546Z,22.67
2023-02-09T17:02:32.432Z,24.75
2023-02-09T17:05:01.742Z,20.42
2023-02-09T17:07:35.656Z,18.85
2023-02-09T17:10:17.427Z,18.45
2023-02-09T17:12:46.136Z,18.23
2023-02-09T17:15:29.389Z,20.17
2023-02-09T17:18:02.323Z,19.45
2023-02-09T17:20:36.186Z,20.30
2023-02-09T17:23:04.838Z,18.48
2023-02-09T17:25:34.507Z,17.95
2023-02-09T17:28:02.877Z,18.83
2023-02-09T17:30:34.293Z,18.98
2023-02-09T17:33:05.888Z,15.77
2023-02-09T17:36:09.956Z,14.25
2023-02-09T17:38:29.601Z,13.88
2023-02-09T17:41:01.272Z,10.90
2023-02-09T17:43:29.574Z,10.88
2023-02-09T17:45:57.931Z,12.50
2023-02-09T17:48:26.153Z,12.13
2023-02-09T17:50:57.987Z,10.88
2023-02-09T17:53:28.585Z,10.63
2023-02-09T17:55:58.135Z,8.38
2023-02-09T17:58:26.661Z,8.55
2023-02-09T18:00:56.022Z,9.77
2023-02-09T18:03:25.954Z,7.47
2023-02-09T18:06:01.447Z,8.27
2023-02-09T18:08:30.967Z,7.88
2023-02-09T18:11:00.523Z,8.45
2023-02-09T18:13:28.740Z,7.65
2023-02-09T18:15:58.038Z,7.60
2023-02-09T18:18:26.196Z,7.93
2023-02-09T18:20:54.342Z,8.70
2023-02-09T18:23:23.394Z,7.93
2023-02-09T18:25:51.945Z,8.70
2023-02-09T18:28:21.703Z,7.30
2023-02-09T18:30:49.987Z,8.85
2023-02-09T18:33:18.822Z,8.80
2023-02-09T18:35:47.312Z,7.68
2023-02-09T18:38:16.485Z,7.93
2023-02-09T18:40:45.038Z,7.68
2023-02-09T18:43:15.254Z,7.65
2023-02-09T18:45:45.472Z,7.15
2023-02-09T18:48:14.319Z,9.05
2023-02-09T18:50:42.529Z,9.35
2023-02-09T18:53:12.699Z,8.25
2023-02-09T18:55:40.840Z,7.95
2023-02-09T18:58:10.287Z,8.45
2023-02-09T19:00:38.472Z,8.15
2023-02-09T19:03:07.992Z,7.10
2023-02-09T19:05:36.983Z,8.40
2023-02-09T19:08:07.240Z,8.68
2023-02-09T19:10:38.527Z,6.97
2023-02-09T19:13:07.408Z,7.43
2023-02-09T19:15:38.668Z,7.57
2023-02-09T19:18:08.195Z,7.00
2023-02-09T19:20:36.395Z,8.52
2023-02-09T19:23:06.681Z,8.05
2023-02-09T19:25:37.011Z,9.05
2023-02-09T19:28:05.533Z,7.32
2023-02-09T19:30:33.810Z,7.95
2023-02-09T19:33:02.179Z,8.48
2023-02-09T19:35:31.951Z,8.05
2023-02-09T19:38:00.226Z,9.43
2023-02-09T19:40:35.547Z,10.77
2023-02-09T19:43:04.520Z,9.13
2023-02-09T19:45:36.414Z,9.80
2023-02-09T19:48:06.113Z,10.93
2023-02-09T19:50:36.763Z,13.02
2023-02-09T19:53:06.946Z,9.65
2023-02-09T19:55:38.398Z,11.00
2023-02-09T19:58:06.558Z,9.90
2023-02-09T20:00:36.825Z,8.23
2023-02-09T20:03:05.463Z,9.38
2023-02-09T20:05:37.632Z,7.50
2023-02-09T20:08:06.084Z,10.97
2023-02-09T20:10:34.227Z,12.63
2023-02-09T20:13:02.385Z,11.67
2023-02-09T20:15:30.571Z,12.37
2023-02-09T20:17:59.077Z,10.03
2023-02-09T20:20:27.242Z,16.37
2023-02-09T20:22:56.937Z,12.70
2023-02-09T20:25:25.083Z,13.77
2023-02-09T20:27:53.351Z,13.57
2023-02-09T20:30:22.517Z,14.40
2023-02-09T20:32:51.116Z,13.70
2023-02-09T20:35:19.515Z,11.90
2023-02-09T20:37:47.698Z,9.90
2023-02-09T20:40:17.734Z,14.53
2023-02-09T20:43:03.582Z,13.43
2023-02-09T20:45:49.109Z,14.73
2023-02-09T20:48:17.424Z,12.67
2023-02-09T20:50:46.216Z,9.27
2023-02-09T20:53:14.566Z,11.27
2023-02-09T20:55:44.450Z,11.23
2023-02-09T20:58:21.710Z,12.17
2023-02-09T21:00:50.088Z,10.60
2023-02-09T21:03:18.742Z,10.37
2023-02-09T21:05:47.203Z,13.30
2023-02-09T21:08:18.330Z,10.33
2023-02-09T21:10:48.139Z,10.80
2023-02-09T21:13:16.505Z,8.07
2023-02-09T21:15:44.890Z,9.97
2023-02-09T21:18:13.084Z,8.77
2023-02-09T21:20:43.837Z,8.00
2023-02-09T21:23:12.366Z,7.77
2023-02-09T21:25:40.541Z,9.87
2023-02-09T21:28:10.260Z,7.27
2023-02-09T21:30:42.843Z,8.83
2023-02-09T21:33:12.497Z,8.70
2023-02-09T21:35:58.222Z,11.47
2023-02-09T21:38:32.179Z,9.10
2023-02-09T21:41:00.412Z,7.60
2023-02-09T21:43:31.935Z,10.27
2023-02-09T21:46:05.954Z,8.23
2023-02-09T21:48:43.763Z,11.63
2023-02-09T21:51:25.868Z,8.73
2023-02-09T21:53:54.870Z,7.17
2023-02-09T21:56:26.038Z,9.77
2023-02-09T21:59:00.672Z,10.13
2023-02-09T22:01:31.087Z,9.03
2023-02-09T22:04:08.346Z,7.30
2023-02-09T22:06:39.295Z,8.97
2023-02-09T22:09:07.448Z,11.70
2023-02-09T22:11:41.369Z,10.27
2023-02-09T22:14:10.941Z,11.73
2023-02-09T22:16:39.201Z,11.53
2023-02-09T22:19:07.456Z,9.77
2023-02-09T22:21:35.648Z,14.00
2023-02-09T22:24:03.915Z,16.97
2023-02-09T22:26:32.411Z,13.10
2023-02-09T22:29:00.735Z,13.87
2023-02-09T22:31:30.345Z,7.83
2023-02-09T22:33:59.068Z,8.53
2023-02-09T22:36:27.284Z,12.37
2023-02-09T22:38:56.530Z,9.93
2023-02-09T22:41:25.407Z,17.00
2023-02-09T22:43:55.722Z,13.97
2023-02-09T22:46:25.633Z,14.60
2023-02-09T22:48:56.443Z,16.13
2023-02-09T22:51:26.869Z,19.30
2023-02-09T22:53:59.088Z,17.40
2023-02-09T22:56:28.035Z,16.47
2023-02-09T22:58:56.781Z,14.20
2023-02-09T23:01:25.299Z,16.07
2023-02-09T23:03:55.531Z,12.83
2023-02-09T23:06:27.260Z,14.53
2023-02-09T23:08:59.579Z,11.40
2023-02-09T23:11:28.719Z,12.53
2023-02-09T23:14:09.188Z,11.03
2023-02-09T23:16:42.363Z,13.83
2023-02-09T23:19:15.889Z,11.73
2023-02-09T23:21:46.057Z,15.00
2023-02-09T23:24:15.211Z,20.90
2023-02-09T23:26:43.871Z,17.73
2023-02-09T23:29:15.426Z,18.47
2023-02-09T23:31:45.301Z,13.70
2023-02-09T23:34:17.172Z,11.73
2023-02-09T23:36:45.709Z,12.30
2023-02-09T23:39:16.531Z,10.47
2023-02-09T23:41:44.954Z,10.80
2023-02-09T23:44:14.947Z,10.37
2023-02-09T23:46:43.298Z,7.43
2023-02-09T23:49:17.544Z,8.60
2023-02-09T23:51:46.536Z,7.13
2023-02-09T23:54:17.758Z,6.37
2023-02-09T23:56:46.718Z,5.90
2023-02-09T23:59:16.421Z,8.10
